createdAt,value
2019-04-03T00:00:14.031Z,35.43
2019-04-03T00:02:42.617Z,34.30
2019-04-03T00:05:11.319Z,34.87
2019-04-03T00:07:39.766Z,33.23
2019-04-03T00:10:09.037Z,38.63
2019-04-03T00:12:40.335Z,39.33
2019-04-03T00:15:08.310Z,37.33
2019-04-03T00:17:36.753Z,35.23
2019-04-03T00:20:07.727Z,42.83
2019-04-03T00:22:55.503Z,36.47
2019-04-03T00:25:23.944Z,38.63
2019-04-03T00:27:52.894Z,39.43
2019-04-03T00:30:22.730Z,35.97
2019-04-03T00:32:53.187Z,40.93
2019-04-03T00:35:23.267Z,43.90
2019-04-03T00:37:53.607Z,44.33
2019-04-03T00:40:22.697Z,36.70
2019-04-03T00:42:54.046Z,44.40
2019-04-03T00:45:24.210Z,38.63
2019-04-03T00:47:55.107Z,41.10
2019-04-03T00:50:22.833Z,48.90
2019-04-03T00:52:51.270Z,34.83
2019-04-03T00:55:19.708Z,37.37
2019-04-03T00:57:48.165Z,35.10
2019-04-03T01:00:17.823Z,40.17
2019-04-03T01:02:46.262Z,40.30
2019-04-03T01:05:14.773Z,35.23
2019-04-03T01:07:43.201Z,40.57
2019-04-03T01:10:12.180Z,35.63
2019-04-03T01:12:40.637Z,48.90
2019-04-03T01:15:09.573Z,40.50
2019-04-03T01:17:38.010Z,40.13
2019-04-03T01:20:06.978Z,40.03
2019-04-03T01:22:37.354Z,55.13
2019-04-03T01:25:08.259Z,36.00
2019-04-03T01:27:37.111Z,39.43
2019-04-03T01:30:06.922Z,37.00
2019-04-03T01:32:35.353Z,34.20
2019-04-03T01:35:04.712Z,40.47
2019-04-03T01:37:33.388Z,39.50
2019-04-03T01:40:02.049Z,36.20
2019-04-03T01:42:30.690Z,35.70
2019-04-03T01:44:59.202Z,39.07
2019-04-03T01:47:28.167Z,39.60
2019-04-03T01:49:58.765Z,37.30
2019-04-03T01:52:27.999Z,40.10
2019-04-03T01:54:56.828Z,39.90
2019-04-03T01:57:25.274Z,39.47
2019-04-03T01:59:53.816Z,44.73
2019-04-03T02:02:22.936Z,38.03
2019-04-03T02:04:51.486Z,33.97
2019-04-03T02:07:19.917Z,42.53
2019-04-03T02:09:48.361Z,42.63
2019-04-03T02:12:17.968Z,40.60
2019-04-03T02:14:46.959Z,34.10
2019-04-03T02:17:15.390Z,44.43
2019-04-03T02:19:43.829Z,33.73
2019-04-03T02:22:12.262Z,39.13
2019-04-03T02:24:41.042Z,38.50
2019-04-03T02:27:09.721Z,34.30
2019-04-03T02:29:39.786Z,42.13
2019-04-03T02:32:08.402Z,39.57
2019-04-03T02:34:36.986Z,43.00
2019-04-03T02:37:05.645Z,38.43
2019-04-03T02:39:34.078Z,36.77
2019-04-03T02:42:02.790Z,36.37
2019-04-03T02:44:31.335Z,36.70
2019-04-03T02:47:01.428Z,34.30
2019-04-03T02:49:30.045Z,31.97
2019-04-03T02:51:58.978Z,35.27
2019-04-03T02:54:30.221Z,29.83
2019-04-03T02:56:59.243Z,35.77
2019-04-03T02:59:27.773Z,37.67
2019-04-03T03:01:58.442Z,35.90
2019-04-03T03:04:27.158Z,41.70
2019-04-03T03:06:55.962Z,34.33
2019-04-03T03:09:24.880Z,40.87
2019-04-03T03:11:56.106Z,35.03
2019-04-03T03:14:23.995Z,37.27
2019-04-03T03:16:53.231Z,37.30
2019-04-03T03:19:23.460Z,40.97
2019-04-03T03:21:54.982Z,36.73
2019-04-03T03:24:24.500Z,39.67
2019-04-03T03:26:55.082Z,37.80
2019-04-03T03:29:26.787Z,40.70
2019-04-03T03:32:08.482Z,40.00
2019-04-03T03:34:48.204Z,34.20
2019-04-03T03:37:00.002Z,36.97
2019-04-03T03:39:28.111Z,45.17
2019-04-03T03:41:58.796Z,45.00
2019-04-03T03:44:28.425Z,45.20
2019-04-03T03:47:01.111Z,42.10
2019-04-03T03:49:29.796Z,48.03
2019-04-03T03:52:02.690Z,37.93
2019-04-03T03:54:29.941Z,44.03
2019-04-03T03:56:59.145Z,39.80
2019-04-03T03:59:27.931Z,34.73
2019-04-03T04:01:56.451Z,45.80
2019-04-03T04:04:25.159Z,41.80
2019-04-03T04:06:53.926Z,41.50
2019-04-03T04:09:22.482Z,35.40
2019-04-03T04:11:51.698Z,40.50
2019-04-03T04:14:22.802Z,35.90
2019-04-03T04:16:50.298Z,36.13
2019-04-03T04:19:19.288Z,34.27
2019-04-03T04:21:48.150Z,37.90
2019-04-03T04:24:17.899Z,34.60
2019-04-03T04:26:47.398Z,39.43
2019-04-03T04:29:17.457Z,37.77
2019-04-03T04:31:45.946Z,37.03
2019-04-03T04:34:14.420Z,40.53
2019-04-03T04:36:42.853Z,35.20
2019-04-03T04:39:11.282Z,37.23
2019-04-03T04:41:39.709Z,33.63
2019-04-03T04:44:09.997Z,37.37
2019-04-03T04:46:38.318Z,37.13
2019-04-03T04:49:06.937Z,37.27
2019-04-03T04:51:35.374Z,41.07
2019-04-03T04:54:03.810Z,38.30
2019-04-03T04:56:32.239Z,36.97
2019-04-03T04:59:00.818Z,46.90
2019-04-03T05:01:29.454Z,36.53
2019-04-03T05:03:57.882Z,38.10
2019-04-03T05:06:28.642Z,34.80
2019-04-03T05:08:58.009Z,41.80
2019-04-03T05:11:26.457Z,36.60
2019-04-03T05:13:56.158Z,36.97
2019-04-03T05:16:25.743Z,37.37
2019-04-03T05:18:54.164Z,54.13
2019-04-03T05:21:22.873Z,41.03
2019-04-03T05:23:51.485Z,40.27
2019-04-03T05:26:21.392Z,41.30
2019-04-03T05:28:57.201Z,35.23
2019-04-03T05:31:21.033Z,40.60
2019-04-03T05:33:49.499Z,44.40
2019-04-03T05:36:18.356Z,40.03
2019-04-03T05:38:46.951Z,35.60
2019-04-03T05:41:15.390Z,38.30
2019-04-03T05:43:43.829Z,36.17
2019-04-03T05:46:12.464Z,36.83
2019-04-03T05:48:41.427Z,35.57
2019-04-03T05:51:10.167Z,37.17
2019-04-03T05:53:39.170Z,36.00
2019-04-03T05:56:07.761Z,34.90
2019-04-03T05:58:36.381Z,34.67
2019-04-03T06:01:06.972Z,36.57
2019-04-03T06:03:42.287Z,38.47
2019-04-03T06:06:05.622Z,37.83
2019-04-03T06:08:35.272Z,36.80
2019-04-03T06:11:07.538Z,40.23
2019-04-03T06:13:34.032Z,36.60
2019-04-03T06:16:03.412Z,35.63
2019-04-03T06:18:32.532Z,33.57
2019-04-03T06:21:00.967Z,42.50
2019-04-03T06:23:30.095Z,35.73
2019-04-03T06:26:00.714Z,39.30
2019-04-03T06:28:29.017Z,36.77
2019-04-03T06:30:57.902Z,33.37
2019-04-03T06:33:26.721Z,33.20
2019-04-03T06:35:55.153Z,41.10
2019-04-03T06:38:24.884Z,34.40
2019-04-03T06:40:53.973Z,38.50
2019-04-03T06:43:22.619Z,37.13
2019-04-03T06:45:51.602Z,38.63
2019-04-03T06:48:20.333Z,45.83
2019-04-03T06:50:48.771Z,40.20
2019-04-03T06:53:17.576Z,37.53
2019-04-03T06:55:46.025Z,32.10
2019-04-03T06:58:14.546Z,36.67
2019-04-03T07:00:42.986Z,35.93
2019-04-03T07:03:11.674Z,34.77
2019-04-03T07:05:41.640Z,38.00
2019-04-03T07:08:10.534Z,34.50
2019-04-03T07:10:40.255Z,60.00
2019-04-03T07:13:09.096Z,38.50
2019-04-03T07:15:37.661Z,33.87
2019-04-03T07:18:06.709Z,38.47
2019-04-03T07:20:35.423Z,40.87
2019-04-03T07:23:04.717Z,45.53
2019-04-03T07:25:33.926Z,42.20
2019-04-03T07:28:03.236Z,36.53
2019-04-03T07:30:32.277Z,40.40
2019-04-03T07:33:00.702Z,43.30
2019-04-03T07:35:29.329Z,35.27
2019-04-03T07:37:58.149Z,62.23
2019-04-03T07:40:26.685Z,36.27
2019-04-03T07:42:56.277Z,39.37
2019-04-03T07:45:25.339Z,32.03
2019-04-03T07:47:53.841Z,54.90
2019-04-03T07:50:22.474Z,35.77
2019-04-03T07:52:50.965Z,55.30
2019-04-03T07:55:19.412Z,33.27
2019-04-03T07:57:47.914Z,44.03
2019-04-03T08:00:17.285Z,38.20
2019-04-03T08:02:48.653Z,47.23
2019-04-03T08:05:15.889Z,35.37
2019-04-03T08:07:44.317Z,33.60
2019-04-03T08:10:13.136Z,29.20
2019-04-03T08:12:41.794Z,30.13
2019-04-03T08:15:13.514Z,37.60
2019-04-03T08:17:41.590Z,25.57
2019-04-03T08:20:10.339Z,22.07
2019-04-03T08:22:39.109Z,34.27
2019-04-03T08:25:27.042Z,27.17
2019-04-03T08:27:55.787Z,27.97
2019-04-03T08:30:24.850Z,25.70
2019-04-03T08:32:53.282Z,33.13
2019-04-03T08:35:24.086Z,26.97
2019-04-03T08:37:51.891Z,30.17
2019-04-03T08:40:39.673Z,28.97
2019-04-03T08:43:08.103Z,31.17
2019-04-03T08:45:38.406Z,49.90
2019-04-03T08:48:07.292Z,25.73
2019-04-03T08:50:36.039Z,26.23
2019-04-03T08:53:07.410Z,28.93
2019-04-03T08:55:35.236Z,29.93
2019-04-03T08:58:03.669Z,28.70
2019-04-03T09:00:32.789Z,33.70
2019-04-03T09:03:03.636Z,30.63
2019-04-03T09:05:31.970Z,27.00
2019-04-03T09:08:00.420Z,30.70
2019-04-03T09:10:31.571Z,29.13
2019-04-03T09:12:59.017Z,28.93
2019-04-03T09:15:28.309Z,28.03
2019-04-03T09:17:57.513Z,29.03
2019-04-03T09:20:25.945Z,32.73
2019-04-03T09:22:54.549Z,29.60
2019-04-03T09:25:23.105Z,25.37
2019-04-03T09:27:51.541Z,29.27
2019-04-03T09:30:21.680Z,26.77
2019-04-03T09:32:50.120Z,27.90
2019-04-03T09:35:18.769Z,28.73
2019-04-03T09:37:47.219Z,30.30
2019-04-03T09:40:17.905Z,33.50
2019-04-03T09:42:46.701Z,31.37
2019-04-03T09:45:15.675Z,30.47
2019-04-03T09:47:44.202Z,28.70
2019-04-03T09:50:16.855Z,32.70
2019-04-03T09:52:49.368Z,34.80
2019-04-03T09:55:15.728Z,34.00
2019-04-03T09:57:44.431Z,31.13
2019-04-03T10:00:15.152Z,35.50
2019-04-03T10:02:43.610Z,36.90
2019-04-03T10:05:12.101Z,35.53
2019-04-03T10:07:40.635Z,35.40
2019-04-03T10:10:09.916Z,38.03
2019-04-03T10:12:38.365Z,52.80
2019-04-03T10:15:08.196Z,43.40
2019-04-03T10:17:38.368Z,43.90
2019-04-03T10:20:09.084Z,41.80
2019-04-03T10:22:37.994Z,47.10
2019-04-03T10:25:08.254Z,48.40
2019-04-03T10:27:37.026Z,41.93
2019-04-03T10:30:12.179Z,39.20
2019-04-03T10:32:40.678Z,43.40
2019-04-03T10:35:09.954Z,45.67
2019-04-03T10:37:38.405Z,43.67
2019-04-03T10:40:08.308Z,41.27
2019-04-03T10:42:36.912Z,47.27
2019-04-03T10:45:08.183Z,36.63
2019-04-03T10:47:42.826Z,43.67
2019-04-03T10:50:08.853Z,40.17
2019-04-03T10:52:37.454Z,38.00
2019-04-03T10:55:07.979Z,43.63
2019-04-03T10:57:38.240Z,42.33
2019-04-03T11:00:10.207Z,45.70
2019-04-03T11:02:39.327Z,36.93
2019-04-03T11:05:08.953Z,33.17
2019-04-03T11:07:37.401Z,34.73
2019-04-03T11:10:08.794Z,30.37
2019-04-03T11:12:37.716Z,35.27
2019-04-03T11:15:11.699Z,33.03
2019-04-03T11:17:40.593Z,33.10
2019-04-03T11:20:11.026Z,35.57
2019-04-03T11:22:42.091Z,24.77
2019-04-03T11:25:13.978Z,28.50
2019-04-03T11:27:44.571Z,26.37
2019-04-03T11:30:17.088Z,29.83
2019-04-03T11:32:43.928Z,30.53
2019-04-03T11:35:13.106Z,25.30
2019-04-03T11:37:41.566Z,23.57
2019-04-03T11:40:11.727Z,26.30
2019-04-03T11:42:40.397Z,27.67
2019-04-03T11:45:09.522Z,23.43
2019-04-03T11:47:38.132Z,22.13
2019-04-03T11:50:08.031Z,23.87
2019-04-03T11:52:37.042Z,28.80
2019-04-03T11:55:10.008Z,20.73
2019-04-03T11:57:37.441Z,23.60
2019-04-03T12:00:11.065Z,26.20
2019-04-03T12:02:40.372Z,27.37
2019-04-03T12:05:10.193Z,24.57
2019-04-03T12:07:38.710Z,25.53
2019-04-03T12:10:08.218Z,29.73
2019-04-03T12:12:37.093Z,26.23
2019-04-03T12:15:08.623Z,43.83
2019-04-03T12:17:37.410Z,25.90
2019-04-03T12:20:09.236Z,28.97
2019-04-03T12:22:37.880Z,31.07
2019-04-03T12:25:07.665Z,30.33
2019-04-03T12:27:36.636Z,33.37
2019-04-03T12:30:09.414Z,27.20
2019-04-03T12:32:42.983Z,25.77
2019-04-03T12:35:09.838Z,30.67
2019-04-03T12:37:38.731Z,23.60
2019-04-03T12:40:08.419Z,26.70
2019-04-03T12:42:36.910Z,22.57
2019-04-03T12:45:07.520Z,21.37
2019-04-03T12:47:36.171Z,20.27
2019-04-03T12:50:07.648Z,20.27
2019-04-03T12:52:36.582Z,15.60
2019-04-03T12:55:06.970Z,15.53
2019-04-03T12:57:38.502Z,13.23
2019-04-03T13:00:10.852Z,17.70
2019-04-03T13:02:39.012Z,11.53
2019-04-03T13:05:08.466Z,13.23
2019-04-03T13:07:37.989Z,12.13
2019-04-03T13:10:09.035Z,9.03
2019-04-03T13:12:37.512Z,10.70
2019-04-03T13:15:10.620Z,11.27
2019-04-03T13:17:42.381Z,11.00
2019-04-03T13:20:10.419Z,15.83
2019-04-03T13:22:39.960Z,9.17
2019-04-03T13:25:09.930Z,8.13
2019-04-03T13:27:38.358Z,7.20
2019-04-03T13:30:12.006Z,7.20
2019-04-03T13:32:41.131Z,7.90
2019-04-03T13:35:10.501Z,8.80
2019-04-03T13:37:38.938Z,12.47
2019-04-03T13:40:09.299Z,9.80
2019-04-03T13:42:38.620Z,13.70
2019-04-03T13:45:09.563Z,8.97
2019-04-03T13:47:41.136Z,6.50
2019-04-03T13:50:09.965Z,9.97
2019-04-03T13:52:42.579Z,9.63
2019-04-03T13:55:09.758Z,11.23
2019-04-03T13:57:38.611Z,10.17
2019-04-03T14:00:18.270Z,6.77
2019-04-03T14:02:40.107Z,9.70
2019-04-03T14:05:09.204Z,8.03
2019-04-03T14:07:40.496Z,7.60
2019-04-03T14:10:10.276Z,7.87
2019-04-03T14:12:43.227Z,5.80
2019-04-03T14:15:09.682Z,10.67
2019-04-03T14:17:38.650Z,9.30
2019-04-03T14:20:08.949Z,12.03
2019-04-03T14:22:37.475Z,6.43
2019-04-03T14:25:17.897Z,7.97
2019-04-03T14:27:38.350Z,9.53
2019-04-03T14:30:11.905Z,8.33
2019-04-03T14:32:41.186Z,13.40
2019-04-03T14:35:39.133Z,7.17
2019-04-03T14:37:41.860Z,13.30
2019-04-03T14:40:12.904Z,16.37
2019-04-03T14:42:41.189Z,12.47
2019-04-03T14:45:13.347Z,14.23
2019-04-03T14:47:40.731Z,15.00
2019-04-03T14:50:10.713Z,20.53
2019-04-03T14:52:39.786Z,14.47
2019-04-03T14:55:19.808Z,16.20
2019-04-03T14:57:39.347Z,17.20
2019-04-03T15:00:24.936Z,21.40
2019-04-03T15:02:41.441Z,17.60
2019-04-03T15:05:10.786Z,25.43
2019-04-03T15:07:40.357Z,23.03
2019-04-03T15:10:10.094Z,21.50
2019-04-03T15:12:39.977Z,18.33
2019-04-03T15:15:09.892Z,19.70
2019-04-03T15:17:38.902Z,18.53
2019-04-03T15:20:12.757Z,25.53
2019-04-03T15:22:41.418Z,22.70
2019-04-03T15:25:10.830Z,18.60
2019-04-03T15:27:39.422Z,24.13
2019-04-03T15:30:11.449Z,20.93
2019-04-03T15:32:40.171Z,25.50
2019-04-03T15:35:13.613Z,20.93
2019-04-03T15:37:43.028Z,23.53
2019-04-03T15:40:12.975Z,20.90
2019-04-03T15:42:41.973Z,33.17
2019-04-03T15:45:11.354Z,20.07
2019-04-03T15:47:44.952Z,20.47
2019-04-03T15:50:12.067Z,24.10
2019-04-03T15:52:43.473Z,28.73
2019-04-03T15:55:11.834Z,22.37
2019-04-03T15:57:40.845Z,20.87
2019-04-03T16:00:15.734Z,24.60
2019-04-03T16:02:46.392Z,23.23
2019-04-03T16:05:16.676Z,21.70
2019-04-03T16:07:45.442Z,22.30
2019-04-03T16:10:14.418Z,26.00
2019-04-03T16:12:43.876Z,19.50
2019-04-03T16:15:13.121Z,22.07
2019-04-03T16:17:42.001Z,21.53
2019-04-03T16:20:11.597Z,16.77
2019-04-03T16:22:40.236Z,16.33
2019-04-03T16:25:09.305Z,17.50
2019-04-03T16:27:38.016Z,17.20
2019-04-03T16:30:09.683Z,16.47
2019-04-03T16:32:38.956Z,17.33
2019-04-03T16:35:08.722Z,16.57
2019-04-03T16:37:37.447Z,15.57
2019-04-03T16:40:07.925Z,15.30
2019-04-03T16:42:38.226Z,17.50
2019-04-03T16:45:09.536Z,13.73
2019-04-03T16:47:39.007Z,17.87
2019-04-03T16:50:10.284Z,18.43
2019-04-03T16:52:38.859Z,16.83
2019-04-03T16:55:08.283Z,16.60
2019-04-03T16:57:37.158Z,17.17
2019-04-03T17:00:09.486Z,16.10
2019-04-03T17:02:38.548Z,14.23
2019-04-03T17:05:10.506Z,14.83
2019-04-03T17:07:38.436Z,12.73
2019-04-03T17:10:09.419Z,22.10
2019-04-03T17:12:38.006Z,18.10
2019-04-03T17:15:08.757Z,21.13
2019-04-03T17:17:37.557Z,20.30
2019-04-03T17:20:10.425Z,15.37
2019-04-03T17:22:40.793Z,15.60
2019-04-03T17:25:10.694Z,16.70
2019-04-03T17:27:39.377Z,17.03
2019-04-03T17:30:10.064Z,19.63
2019-04-03T17:32:39.985Z,14.73
2019-04-03T17:35:08.996Z,17.20
2019-04-03T17:37:37.426Z,22.50
2019-04-03T17:40:08.952Z,16.33
2019-04-03T17:42:39.241Z,19.00
2019-04-03T17:45:08.362Z,19.10
2019-04-03T17:47:36.786Z,19.20
2019-04-03T17:50:07.293Z,19.70
2019-04-03T17:52:36.541Z,16.23
2019-04-03T17:55:11.180Z,17.20
2019-04-03T17:57:40.092Z,18.90
2019-04-03T18:00:20.498Z,17.23
2019-04-03T18:02:48.095Z,20.07
2019-04-03T18:05:17.223Z,18.97
2019-04-03T18:07:45.662Z,24.03
2019-04-03T18:10:14.651Z,19.67
2019-04-03T18:12:45.482Z,20.13
2019-04-03T18:15:13.786Z,20.53
2019-04-03T18:17:42.225Z,15.73
2019-04-03T18:20:13.281Z,19.30
2019-04-03T18:22:44.828Z,17.03
2019-04-03T18:25:14.253Z,19.13
2019-04-03T18:27:42.756Z,22.33
2019-04-03T18:30:12.678Z,19.00
2019-04-03T18:32:41.297Z,24.43
2019-04-03T18:35:10.693Z,20.97
2019-04-03T18:37:40.864Z,20.00
2019-04-03T18:40:14.182Z,21.60
2019-04-03T18:42:41.320Z,20.50
2019-04-03T18:45:10.304Z,19.87
2019-04-03T18:47:41.692Z,20.60
2019-04-03T18:50:10.182Z,22.80
2019-04-03T18:52:39.457Z,22.27
2019-04-03T18:55:08.741Z,21.83
2019-04-03T18:57:37.473Z,24.43
2019-04-03T19:00:10.422Z,20.63
2019-04-03T19:02:38.883Z,22.83
2019-04-03T19:05:10.117Z,28.20
2019-04-03T19:07:38.846Z,28.17
2019-04-03T19:10:08.264Z,24.40
2019-04-03T19:12:37.313Z,37.70
2019-04-03T19:15:08.100Z,20.23
2019-04-03T19:17:36.608Z,22.97
2019-04-03T19:20:10.881Z,27.60
2019-04-03T19:22:37.337Z,21.87
2019-04-03T19:25:09.509Z,29.30
2019-04-03T19:27:38.331Z,29.20
2019-04-03T19:30:07.963Z,28.97
2019-04-03T19:32:36.570Z,24.43
2019-04-03T19:35:09.551Z,26.80
2019-04-03T19:37:37.939Z,30.90
2019-04-03T19:40:09.717Z,28.20
2019-04-03T19:42:38.954Z,22.47
2019-04-03T19:45:09.133Z,24.43
2019-04-03T19:47:37.707Z,26.60
2019-04-03T19:50:08.679Z,27.97
2019-04-03T19:52:39.444Z,26.27
2019-04-03T19:55:08.514Z,26.33
2019-04-03T19:57:36.959Z,33.13
2019-04-03T20:00:07.109Z,29.20
2019-04-03T20:02:37.791Z,27.60
2019-04-03T20:05:07.849Z,30.30
2019-04-03T20:07:36.960Z,29.43
2019-04-03T20:10:08.603Z,29.43
2019-04-03T20:12:37.725Z,31.10
2019-04-03T20:15:09.005Z,32.40
2019-04-03T20:17:37.523Z,47.57
2019-04-03T20:20:07.371Z,35.17
2019-04-03T20:22:37.420Z,30.40
2019-04-03T20:25:05.970Z,35.63
2019-04-03T20:27:34.517Z,29.80
2019-04-03T20:30:05.165Z,35.13
2019-04-03T20:32:33.600Z,34.43
2019-04-03T20:35:02.075Z,33.17
2019-04-03T20:37:30.573Z,37.90
2019-04-03T20:40:00.047Z,43.77
2019-04-03T20:42:29.140Z,51.80
2019-04-03T20:44:57.578Z,50.53
2019-04-03T20:47:27.025Z,45.33
2019-04-03T20:49:56.174Z,47.07
2019-04-03T20:52:24.602Z,41.70
2019-04-03T20:54:53.770Z,43.33
2019-04-03T20:57:22.575Z,41.50
2019-04-03T20:59:58.515Z,52.67
2019-04-03T21:02:21.318Z,44.73
2019-04-03T21:04:49.804Z,45.80
2019-04-03T21:07:18.242Z,42.80
2019-04-03T21:09:47.985Z,42.80
2019-04-03T21:12:16.407Z,44.80
2019-04-03T21:14:47.414Z,44.50
2019-04-03T21:17:15.031Z,45.17
2019-04-03T21:19:43.469Z,43.53
2019-04-03T21:22:11.903Z,46.30
2019-04-03T21:24:41.029Z,50.40
2019-04-03T21:27:09.485Z,55.07
2019-04-03T21:29:37.969Z,44.33
2019-04-03T21:32:06.401Z,46.53
2019-04-03T21:34:54.183Z,48.03
2019-04-03T21:37:22.797Z,49.23
2019-04-03T21:39:51.233Z,49.17
2019-04-03T21:42:19.671Z,42.87
2019-04-03T21:44:48.150Z,45.80
2019-04-03T21:47:16.580Z,43.93
2019-04-03T21:49:47.407Z,45.53
2019-04-03T21:52:15.175Z,49.83
2019-04-03T21:54:43.609Z,51.27
2019-04-03T21:57:12.049Z,45.40
2019-04-03T21:59:41.696Z,50.77
2019-04-03T22:02:10.937Z,45.90
2019-04-03T22:04:39.373Z,47.90
2019-04-03T22:07:07.813Z,54.87
2019-04-03T22:09:36.248Z,47.90
2019-04-03T22:12:06.006Z,59.80
2019-04-03T22:14:35.129Z,51.50
2019-04-03T22:17:04.953Z,50.97
2019-04-03T22:19:33.393Z,51.23
2019-04-03T22:22:03.074Z,54.30
2019-04-03T22:24:32.014Z,50.83
2019-04-03T22:27:00.453Z,56.57
2019-04-03T22:29:28.882Z,51.57
2019-04-03T22:31:57.323Z,59.20
2019-04-03T22:34:25.931Z,63.20
2019-04-03T22:36:54.371Z,52.10
2019-04-03T22:39:22.988Z,52.77
2019-04-03T22:41:51.497Z,53.80
2019-04-03T22:44:20.057Z,56.70
2019-04-03T22:46:48.495Z,57.83
2019-04-03T22:49:16.916Z,58.97
2019-04-03T22:51:45.352Z,62.67
2019-04-03T22:54:13.784Z,61.80
2019-04-03T22:57:02.569Z,59.90
2019-04-03T22:59:31.001Z,69.03
2019-04-03T23:02:01.354Z,59.03
2019-04-03T23:04:29.713Z,62.30
2019-04-03T23:06:58.152Z,63.47
2019-04-03T23:09:26.583Z,79.60
2019-04-03T23:11:55.077Z,63.57
2019-04-03T23:14:23.633Z,65.90
2019-04-03T23:16:52.065Z,63.57
2019-04-03T23:19:20.507Z,65.17
2019-04-03T23:21:49.078Z,76.70
2019-04-03T23:24:17.515Z,68.50
2019-04-03T23:26:46.041Z,64.10
2019-04-03T23:29:14.593Z,68.90
2019-04-03T23:31:45.029Z,57.10
2019-04-03T23:34:13.435Z,67.70
2019-04-03T23:36:41.867Z,69.97
2019-04-03T23:39:10.329Z,65.53
2019-04-03T23:41:38.765Z,65.67
2019-04-03T23:44:07.225Z,69.50
2019-04-03T23:46:37.689Z,75.50
2019-04-03T23:49:06.128Z,64.30
2019-04-03T23:51:34.565Z,71.33
2019-04-03T23:54:03.363Z,73.00
2019-04-03T23:56:32.111Z,72.17
2019-04-03T23:59:00.550Z,66.30
